Umar1 — 9HA2498 — position and weather

sailwx.info

Track history (hours):
 
Tides and Currents Weather Stations Pressure Air Temp Water Temp Dewpoint Dewpoint Depression Visibility Wind Speed Wind Dir Waves Ship Positions

Umar1

Last reported at 2016-Dec-05 17:29 UTC. Time now 2016-Dec-05 18:34 UTC.
Position N 51°53' E 004°21'.

Length 100 m; draft 5 m.

Type: Ship. MMSI: 248751000.

Date/timePositionNaut miles runAvg speedWind from/ knotsBaromVisibWave heightAir tempDewpointWater temp
2016-Dec-05 17:29N 51°53' E 004°21'0 0.1
2016-Dec-05 16:33N 51°53' E 004°21'8 7.8
2016-Dec-05 15:33N 51°57' E 004°10'1010.3
2016-Dec-05 14:33N 51°60' E 003°54'8 0.8
2016-Dec-05 05:31N 51°56' E 003°43'5511.1
2016-Dec-05 00:32N 51°34' E 002°21'1010.1
2016-Dec-04 23:33N 51°26' E 002°12'10 9.9
2016-Dec-04 22:34N 51°17' E 002°06'9 8.8
2016-Dec-04 21:34N 51°11' E 001°56'9 9.1
2016-Dec-04 20:33N 51°05' E 001°44'10 9.4
2016-Dec-04 19:28N 50°58' E 001°33'107 9.4
2016-Dec-04 08:07N 49°48' W 000°34'611.1
2016-Dec-04 07:34N 49°43' W 000°29'1211.5
2016-Dec-04 06:33N 49°33' W 000°18'1212.4
2016-Dec-04 05:33N 49°28' W 000°01'1413.9
2016-Dec-04 04:34N 49°26' E 000°20'9 8.4
2016-Dec-04 03:33N 49°28' E 000°33'0 0.0
2016-Dec-04 02:33N 49°28' E 000°33'0 0.0
2016-Dec-04 01:27N 49°28' E 000°33'0 0.0
2016-Dec-04 00:15N 49°28' E 000°33'0 0.0
2016-Dec-03 23:33N 49°28' E 000°33'0 0.0
2016-Dec-03 17:21N 49°28' E 000°33'0 0.0
2016-Dec-03 16:33N 49°28' E 000°33'0 0.0
2016-Dec-03 15:27N 49°28' E 000°33'0 0.0
2016-Dec-03 14:33N 49°28' E 000°33'0 0.0
2016-Dec-03 13:33N 49°28' E 000°33'3 3.5
2016-Dec-03 12:33N 49°28' E 000°27'1111.4
2016-Dec-03 11:33N 49°26' E 000°10'10 9.7
2016-Dec-03 10:33N 49°29' W 000°04'2 1.5
2016-Dec-03 09:31N 49°28' W 000°07'0 0.1
2016-Dec-03 08:31N 49°28' W 000°07'0 0.0
2016-Dec-03 07:31N 49°28' W 000°07'0 0.0
2016-Dec-03 06:31N 49°28' W 000°07'0 0.0
2016-Dec-03 05:31N 49°28' W 000°07'0 0.0
2016-Dec-03 04:31N 49°28' W 000°07'0 0.0
2016-Dec-03 03:31N 49°28' W 000°07'0 0.0
2016-Dec-03 02:31N 49°28' W 000°07'0 0.0
2016-Dec-03 01:31N 49°28' W 000°07'0 0.0
2016-Dec-03 00:31N 49°28' W 000°07'0 0.1
2016-Dec-02 23:31N 49°28' W 000°07'0 0.0
2016-Dec-02 22:31N 49°28' W 000°06'0 0.0
2016-Dec-02 21:31N 49°28' W 000°07'0 0.1
2016-Dec-02 20:31N 49°28' W 000°07'0 0.1
2016-Dec-02 19:31N 49°28' W 000°07'0 0.0
2016-Dec-02 18:28N 49°28' W 000°07'0 0.0
2016-Dec-02 17:31N 49°28' W 000°07'0 0.0
2016-Dec-02 16:31N 49°28' W 000°07'0 0.0
2016-Dec-02 15:31N 49°28' W 000°07'0 0.0
2016-Dec-02 14:31N 49°28' W 000°07'0 0.0
2016-Dec-02 13:31N 49°28' W 000°07'0 0.1
2016-Dec-02 12:31N 49°28' W 000°06'0 0.0
2016-Dec-02 11:31N 49°28' W 000°06'0 0.0
2016-Dec-02 10:31N 49°28' W 000°06'0 0.0
2016-Dec-02 09:31N 49°28' W 000°06'0 0.0
2016-Dec-02 08:31N 49°28' W 000°06'0 0.1
2016-Dec-02 07:31N 49°28' W 000°07'0 0.0
2016-Dec-02 06:31N 49°28' W 000°07'0 0.0
2016-Dec-02 05:31N 49°28' W 000°07'0 0.0
2016-Dec-02 04:31N 49°28' W 000°07'0 0.0
2016-Dec-02 03:28N 49°28' W 000°07'0 0.0
2016-Dec-02 02:31N 49°28' W 000°07'0 0.5
2016-Dec-02 01:34N 49°29' W 000°06'1110.9
2016-Dec-02 00:33N 49°35' W 000°20'1212.3
2016-Dec-01 23:33N 49°44' W 000°32'6 2.5
2016-Dec-01 21:15N 49°48' W 000°39'17 9.3
2016-Dec-01 19:24N 49°54' W 001°04'8 9.8
2016-Dec-01 18:33N 49°56' W 001°17'9 8.8
2016-Dec-01 17:33N 49°58' W 001°30'1010.1
2016-Dec-01 16:32N 50°02' W 001°45'62 8.8
2016-Dec-01 09:34N 50°24' W 000°15'10 9.4
2016-Dec-01 08:30N 50°28' W 000°01'6011.4
2016-Dec-01 03:11N 51°00' E 001°20'610.0
2016-Dec-01 02:33N 51°04' E 001°27'9 8.9
2016-Dec-01 01:34N 51°10' E 001°38'9 8.9
2016-Dec-01 00:33N 51°17' E 001°48'8 7.7
2016-Nov-30 23:33N 51°24' E 001°46'1110.7
2016-Nov-30 22:33N 51°26' E 001°29'11 9.1
2016-Nov-30 21:24N 51°29' E 001°12'2010.9
2016-Nov-30 19:32N 51°30' E 000°40'1111.5
2016-Nov-30 18:34N 51°27' E 000°22'9 9.3
2016-Nov-30 17:33N 51°31' E 000°09'0 0.3
2016-Nov-30 16:28N 51°31' E 000°08'0 0.0
2016-Nov-30 12:25N 51°31' E 000°08'0 0.0
2016-Nov-30 11:31N 51°31' E 000°08'0 0.0
2016-Nov-30 10:10N 51°31' E 000°08'0 0.0
2016-Nov-30 09:28N 51°31' E 000°08'0 0.0
2016-Nov-30 07:31N 51°31' E 000°08'0 0.0
2016-Nov-30 06:31N 51°31' E 000°08'0 0.0
2016-Nov-30 05:31N 51°31' E 000°08'0 0.0
2016-Nov-30 04:31N 51°31' E 000°08'0 0.0
2016-Nov-29 23:25N 51°31' E 000°08'0 0.0
2016-Nov-29 22:28N 51°31' E 000°08'0 0.0
2016-Nov-29 21:31N 51°31' E 000°08'0 0.0
2016-Nov-29 20:28N 51°31' E 000°08'0 0.0
2016-Nov-29 19:28N 51°31' E 000°08'0 0.0
2016-Nov-29 18:22N 51°31' E 000°08'0 0.0
2016-Nov-29 17:31N 51°31' E 000°08'0 0.0
2016-Nov-29 16:31N 51°31' E 000°08'0 0.0
2016-Nov-29 14:16N 51°31' E 000°08'0 0.0
2016-Nov-29 13:31N 51°31' E 000°08'0 0.0
2016-Nov-29 12:31N 51°31' E 000°08'0 0.0
2016-Nov-29 10:31N 51°31' E 000°08'0 0.0
2016-Nov-29 09:25N 51°31' E 000°08'0 0.0
2016-Nov-29 08:22N 51°31' E 000°08'0 0.0
2016-Nov-29 07:31N 51°31' E 000°08'0 0.0
2016-Nov-29 06:31N 51°31' E 000°08'0 0.0
2016-Nov-29 05:31N 51°31' E 000°08'0 0.0
2016-Nov-29 04:28N 51°31' E 000°08'0 0.0
2016-Nov-29 03:13N 51°31' E 000°08'0 0.0
2016-Nov-29 02:16N 51°31' E 000°08'0 0.0
2016-Nov-29 01:25N 51°31' E 000°08'0 0.0
2016-Nov-29 00:28N 51°31' E 000°08'0 0.0
2016-Nov-28 22:19N 51°31' E 000°08'0 0.2
2016-Nov-28 21:33N 51°31' E 000°09'9 8.7
2016-Nov-28 20:33N 51°27' E 000°21'8 7.8
2016-Nov-28 19:33N 51°30' E 000°32'1310.7
2016-Nov-28 18:22N 51°29' E 000°53'910.7
2016-Nov-28 17:33N 51°30' E 001°07'1010.2
2016-Nov-28 16:33N 51°29' E 001°23'7 7.2
2016-Nov-28 15:33N 51°24' E 001°33'5 5.1
2016-Nov-28 14:33N 51°23' E 001°40'6 5.5
2016-Nov-28 13:33N 51°26' E 001°48'7 7.2
2016-Nov-28 12:31N 51°25' E 001°60'12 9.1
2016-Nov-28 11:15N 51°14' E 002°04'810.9
2016-Nov-28 10:33N 51°10' E 001°54'1110.5
2016-Nov-28 09:33N 51°03' E 001°41'135 9.0
2016-Nov-27 18:33N 50°04' W 001°30'1312.5
2016-Nov-27 17:33N 50°00' W 001°49'  
Track history (hours):
 
Tides and Currents Weather Stations Pressure Air Temp Water Temp Dewpoint Dewpoint Depression Visibility Wind Speed Wind Dir Waves Ship Positions

Umar1

Last reported at 2016-Dec-05 17:29 UTC. Time now 2016-Dec-05 18:34 UTC.
Position N 51°53' E 004°21'.

Length 100 m; draft 5 m.

Type: Ship. MMSI: 248751000.

Date/timePositionNaut miles runAvg speedWind from/ knotsBaromVisibWave heightAir tempDewpointWater temp
2016-Dec-05 17:29N 51°53' E 004°21'0 0.1
2016-Dec-05 16:33N 51°53' E 004°21'8 7.8
2016-Dec-05 15:33N 51°57' E 004°10'1010.3
2016-Dec-05 14:33N 51°60' E 003°54'8 0.8
2016-Dec-05 05:31N 51°56' E 003°43'5511.1
2016-Dec-05 00:32N 51°34' E 002°21'1010.1
2016-Dec-04 23:33N 51°26' E 002°12'10 9.9
2016-Dec-04 22:34N 51°17' E 002°06'9 8.8
2016-Dec-04 21:34N 51°11' E 001°56'9 9.1
2016-Dec-04 20:33N 51°05' E 001°44'10 9.4
2016-Dec-04 19:28N 50°58' E 001°33'107 9.4
2016-Dec-04 08:07N 49°48' W 000°34'611.1
2016-Dec-04 07:34N 49°43' W 000°29'1211.5
2016-Dec-04 06:33N 49°33' W 000°18'1212.4
2016-Dec-04 05:33N 49°28' W 000°01'1413.9
2016-Dec-04 04:34N 49°26' E 000°20'9 8.4
2016-Dec-04 03:33N 49°28' E 000°33'0 0.0
2016-Dec-04 02:33N 49°28' E 000°33'0 0.0
2016-Dec-04 01:27N 49°28' E 000°33'0 0.0
2016-Dec-04 00:15N 49°28' E 000°33'0 0.0
2016-Dec-03 23:33N 49°28' E 000°33'0 0.0
2016-Dec-03 17:21N 49°28' E 000°33'0 0.0
2016-Dec-03 16:33N 49°28' E 000°33'0 0.0
2016-Dec-03 15:27N 49°28' E 000°33'0 0.0
2016-Dec-03 14:33N 49°28' E 000°33'0 0.0
2016-Dec-03 13:33N 49°28' E 000°33'3 3.5
2016-Dec-03 12:33N 49°28' E 000°27'1111.4
2016-Dec-03 11:33N 49°26' E 000°10'10 9.7
2016-Dec-03 10:33N 49°29' W 000°04'2 1.5
2016-Dec-03 09:31N 49°28' W 000°07'0 0.1
2016-Dec-03 08:31N 49°28' W 000°07'0 0.0
2016-Dec-03 07:31N 49°28' W 000°07'0 0.0
2016-Dec-03 06:31N 49°28' W 000°07'0 0.0
2016-Dec-03 05:31N 49°28' W 000°07'0 0.0
2016-Dec-03 04:31N 49°28' W 000°07'0 0.0
2016-Dec-03 03:31N 49°28' W 000°07'0 0.0
2016-Dec-03 02:31N 49°28' W 000°07'0 0.0
2016-Dec-03 01:31N 49°28' W 000°07'0 0.0
2016-Dec-03 00:31N 49°28' W 000°07'0 0.1
2016-Dec-02 23:31N 49°28' W 000°07'0 0.0
2016-Dec-02 22:31N 49°28' W 000°06'0 0.0
2016-Dec-02 21:31N 49°28' W 000°07'0 0.1
2016-Dec-02 20:31N 49°28' W 000°07'0 0.1
2016-Dec-02 19:31N 49°28' W 000°07'0 0.0
2016-Dec-02 18:28N 49°28' W 000°07'0 0.0
2016-Dec-02 17:31N 49°28' W 000°07'0 0.0
2016-Dec-02 16:31N 49°28' W 000°07'0 0.0
2016-Dec-02 15:31N 49°28' W 000°07'0 0.0
2016-Dec-02 14:31N 49°28' W 000°07'0 0.0
2016-Dec-02 13:31N 49°28' W 000°07'0 0.1
2016-Dec-02 12:31N 49°28' W 000°06'0 0.0
2016-Dec-02 11:31N 49°28' W 000°06'0 0.0
2016-Dec-02 10:31N 49°28' W 000°06'0 0.0
2016-Dec-02 09:31N 49°28' W 000°06'0 0.0
2016-Dec-02 08:31N 49°28' W 000°06'0 0.1
2016-Dec-02 07:31N 49°28' W 000°07'0 0.0
2016-Dec-02 06:31N 49°28' W 000°07'0 0.0
2016-Dec-02 05:31N 49°28' W 000°07'0 0.0
2016-Dec-02 04:31N 49°28' W 000°07'0 0.0
2016-Dec-02 03:28N 49°28' W 000°07'0 0.0
2016-Dec-02 02:31N 49°28' W 000°07'0 0.5
2016-Dec-02 01:34N 49°29' W 000°06'1110.9
2016-Dec-02 00:33N 49°35' W 000°20'1212.3
2016-Dec-01 23:33N 49°44' W 000°32'6 2.5
2016-Dec-01 21:15N 49°48' W 000°39'17 9.3
2016-Dec-01 19:24N 49°54' W 001°04'8 9.8
2016-Dec-01 18:33N 49°56' W 001°17'9 8.8
2016-Dec-01 17:33N 49°58' W 001°30'1010.1
2016-Dec-01 16:32N 50°02' W 001°45'62 8.8
2016-Dec-01 09:34N 50°24' W 000°15'10 9.4
2016-Dec-01 08:30N 50°28' W 000°01'6011.4
2016-Dec-01 03:11N 51°00' E 001°20'610.0
2016-Dec-01 02:33N 51°04' E 001°27'9 8.9
2016-Dec-01 01:34N 51°10' E 001°38'9 8.9
2016-Dec-01 00:33N 51°17' E 001°48'8 7.7
2016-Nov-30 23:33N 51°24' E 001°46'1110.7
2016-Nov-30 22:33N 51°26' E 001°29'11 9.1
2016-Nov-30 21:24N 51°29' E 001°12'2010.9
2016-Nov-30 19:32N 51°30' E 000°40'1111.5
2016-Nov-30 18:34N 51°27' E 000°22'9 9.3
2016-Nov-30 17:33N 51°31' E 000°09'0 0.3
2016-Nov-30 16:28N 51°31' E 000°08'0 0.0
2016-Nov-30 12:25N 51°31' E 000°08'0 0.0
2016-Nov-30 11:31N 51°31' E 000°08'0 0.0
2016-Nov-30 10:10N 51°31' E 000°08'0 0.0
2016-Nov-30 09:28N 51°31' E 000°08'0 0.0
2016-Nov-30 07:31N 51°31' E 000°08'0 0.0
2016-Nov-30 06:31N 51°31' E 000°08'0 0.0
2016-Nov-30 05:31N 51°31' E 000°08'0 0.0
2016-Nov-30 04:31N 51°31' E 000°08'0 0.0
2016-Nov-29 23:25N 51°31' E 000°08'0 0.0
2016-Nov-29 22:28N 51°31' E 000°08'0 0.0
2016-Nov-29 21:31N 51°31' E 000°08'0 0.0
2016-Nov-29 20:28N 51°31' E 000°08'0 0.0
2016-Nov-29 19:28N 51°31' E 000°08'0 0.0
2016-Nov-29 18:22N 51°31' E 000°08'0 0.0
2016-Nov-29 17:31N 51°31' E 000°08'0 0.0
2016-Nov-29 16:31N 51°31' E 000°08'0 0.0
2016-Nov-29 14:16N 51°31' E 000°08'0 0.0
2016-Nov-29 13:31N 51°31' E 000°08'0 0.0
2016-Nov-29 12:31N 51°31' E 000°08'0 0.0
2016-Nov-29 10:31N 51°31' E 000°08'0 0.0
2016-Nov-29 09:25N 51°31' E 000°08'0 0.0
2016-Nov-29 08:22N 51°31' E 000°08'0 0.0
2016-Nov-29 07:31N 51°31' E 000°08'0 0.0
2016-Nov-29 06:31N 51°31' E 000°08'0 0.0
2016-Nov-29 05:31N 51°31' E 000°08'0 0.0
2016-Nov-29 04:28N 51°31' E 000°08'0 0.0
2016-Nov-29 03:13N 51°31' E 000°08'0 0.0
2016-Nov-29 02:16N 51°31' E 000°08'0 0.0
2016-Nov-29 01:25N 51°31' E 000°08'0 0.0
2016-Nov-29 00:28N 51°31' E 000°08'0 0.0
2016-Nov-28 22:19N 51°31' E 000°08'0 0.2
2016-Nov-28 21:33N 51°31' E 000°09'9 8.7
2016-Nov-28 20:33N 51°27' E 000°21'8 7.8
2016-Nov-28 19:33N 51°30' E 000°32'1310.7
2016-Nov-28 18:22N 51°29' E 000°53'910.7
2016-Nov-28 17:33N 51°30' E 001°07'1010.2
2016-Nov-28 16:33N 51°29' E 001°23'7 7.2
2016-Nov-28 15:33N 51°24' E 001°33'5 5.1
2016-Nov-28 14:33N 51°23' E 001°40'6 5.5
2016-Nov-28 13:33N 51°26' E 001°48'7 7.2
2016-Nov-28 12:31N 51°25' E 001°60'12 9.1
2016-Nov-28 11:15N 51°14' E 002°04'810.9
2016-Nov-28 10:33N 51°10' E 001°54'1110.5
2016-Nov-28 09:33N 51°03' E 001°41'135 9.0
2016-Nov-27 18:33N 50°04' W 001°30'1312.5
2016-Nov-27 17:33N 50°00' W 001°49'  

Dump ship's entire track history